createdAt,value
2023-04-07T00:02:18.677Z,100216.58
2023-04-07T00:04:52.023Z,100220.37
2023-04-07T00:07:25.272Z,100216.91
2023-04-07T00:09:59.349Z,100216.23
2023-04-07T00:12:32.506Z,100219.05
2023-04-07T00:15:07.283Z,100216.73
2023-04-07T00:17:40.445Z,100218.70
2023-04-07T00:20:16.313Z,100211.13
2023-04-07T00:22:49.652Z,100219.17
2023-04-07T00:25:23.265Z,100213.91
2023-04-07T00:27:57.132Z,100222.79
2023-04-07T00:30:31.400Z,100216.20
2023-04-07T00:33:04.988Z,100212.09
2023-04-07T00:35:43.311Z,100214.06
2023-04-07T00:38:16.642Z,100214.20
2023-04-07T00:40:51.264Z,100213.72
2023-04-07T00:43:25.725Z,100210.42
2023-04-07T00:45:59.944Z,100213.52
2023-04-07T00:48:34.592Z,100214.82
2023-04-07T00:51:08.879Z,100214.33
2023-04-07T00:53:43.304Z,100211.18
2023-04-07T00:56:16.961Z,100212.48
2023-04-07T00:58:50.350Z,100209.36
2023-04-07T01:01:28.868Z,100208.17
2023-04-07T01:04:09.159Z,100205.86
2023-04-07T01:06:49.988Z,100204.69
2023-04-07T01:09:27.622Z,100207.64
2023-04-07T01:12:07.019Z,100213.53
2023-04-07T01:14:47.880Z,100208.72
2023-04-07T01:17:39.218Z,100206.58
2023-04-07T01:20:18.124Z,100204.41
2023-04-07T01:22:55.852Z,100204.05
2023-04-07T01:25:52.151Z,100203.55
2023-04-07T01:28:46.404Z,100203.02
2023-04-07T01:31:20.913Z,100201.67
2023-04-07T01:33:56.994Z,100198.55
2023-04-07T01:36:33.890Z,100200.65
2023-04-07T01:39:08.478Z,100203.59
2023-04-07T01:41:42.749Z,100197.97
2023-04-07T01:44:17.972Z,100195.82
2023-04-07T01:46:52.294Z,100197.91
2023-04-07T01:49:27.324Z,100194.78
2023-04-07T01:52:01.906Z,100187.21
2023-04-07T01:54:37.044Z,100189.17
2023-04-07T01:57:10.640Z,100191.93
2023-04-07T01:59:44.426Z,100192.23
2023-04-07T02:02:19.174Z,100187.29
2023-04-07T02:04:56.542Z,100186.62
2023-04-07T02:07:33.676Z,100189.41
2023-04-07T02:10:13.621Z,100190.39
2023-04-07T02:12:48.684Z,100194.97
2023-04-07T02:15:26.624Z,100190.02
2023-04-07T02:18:03.167Z,100182.28
2023-04-07T02:20:38.972Z,100182.28
2023-04-07T02:23:12.762Z,100186.72
2023-04-07T02:25:47.278Z,100187.53
2023-04-07T02:28:20.574Z,100181.61
2023-04-07T02:30:54.403Z,100190.46
2023-04-07T02:33:27.831Z,100189.48
2023-04-07T02:36:01.201Z,100195.88
2023-04-07T02:38:35.247Z,100197.53
2023-04-07T02:41:11.658Z,100197.53
2023-04-07T02:43:45.254Z,100202.91
2023-04-07T02:46:18.697Z,100203.89
2023-04-07T02:48:52.417Z,100208.17
2023-04-07T02:51:27.285Z,100204.56
2023-04-07T02:54:00.882Z,100208.03
2023-04-07T02:56:35.093Z,100207.05
2023-04-07T02:59:09.101Z,100212.30
2023-04-07T03:01:46.642Z,100210.49
2023-04-07T03:04:20.523Z,100204.43
2023-04-07T03:06:54.402Z,100207.05
2023-04-07T03:09:28.013Z,100208.03
2023-04-07T03:12:03.854Z,100213.28
2023-04-07T03:14:40.528Z,100207.36
2023-04-07T03:17:14.126Z,100208.33
2023-04-07T03:19:49.578Z,100207.66
2023-04-07T03:22:23.241Z,100210.42
2023-04-07T03:24:58.406Z,100211.56
2023-04-07T03:27:32.310Z,100215.30
2023-04-07T03:30:09.543Z,100221.52
2023-04-07T03:32:43.004Z,100220.84
2023-04-07T03:35:17.624Z,100220.17
2023-04-07T03:37:51.158Z,100221.14
2023-04-07T03:40:24.917Z,100230.84
2023-04-07T03:42:58.322Z,100232.63
2023-04-07T03:45:31.913Z,100228.34
2023-04-07T03:48:05.593Z,100233.59
2023-04-07T03:50:39.578Z,100236.39
2023-04-07T03:53:19.670Z,100243.28
2023-04-07T03:55:53.486Z,100247.39
2023-04-07T03:58:34.896Z,100246.59
2023-04-07T04:01:09.074Z,100249.21
2023-04-07T04:03:43.086Z,100252.52
2023-04-07T04:06:36.402Z,100254.16
2023-04-07T04:09:21.226Z,100259.11
2023-04-07T04:11:55.423Z,100254.67
2023-04-07T04:14:30.264Z,100257.00
2023-04-07T04:17:05.687Z,100259.33
2023-04-07T04:19:52.157Z,100262.62
2023-04-07T04:22:32.611Z,100267.58
2023-04-07T04:25:06.421Z,100267.45
2023-04-07T04:27:40.224Z,100261.89
2023-04-07T04:30:21.334Z,100266.00
2023-04-07T04:33:01.385Z,100273.75
2023-04-07T04:35:41.089Z,100282.14
2023-04-07T04:38:17.567Z,100285.30
2023-04-07T04:40:55.869Z,100292.20
2023-04-07T04:43:35.753Z,100295.81
2023-04-07T04:46:09.838Z,100298.94
2023-04-07T04:48:47.069Z,100296.99
2023-04-07T04:51:23.716Z,100298.64
2023-04-07T04:54:01.410Z,100303.46
2023-04-07T04:56:35.014Z,100312.83
2023-04-07T04:59:09.003Z,100310.20
2023-04-07T05:01:50.250Z,100318.08
2023-04-07T05:04:24.547Z,100320.70
2023-04-07T05:07:05.792Z,100318.08
2023-04-07T05:09:39.593Z,100329.94
2023-04-07T05:12:15.865Z,100324.55
2023-04-07T05:14:53.560Z,100330.48
2023-04-07T05:17:27.977Z,100330.61
2023-04-07T05:20:01.458Z,100337.38
2023-04-07T05:22:43.428Z,100338.20
2023-04-07T05:25:19.215Z,100346.92
2023-04-07T05:27:54.247Z,100342.47
2023-04-07T05:30:28.168Z,100345.94
2023-04-07T05:33:01.684Z,100346.75
2023-04-07T05:35:47.638Z,100354.50
2023-04-07T05:38:21.467Z,100354.20
2023-04-07T05:40:55.258Z,100360.43
2023-04-07T05:43:33.112Z,100359.28
2023-04-07T05:46:06.770Z,100365.22
2023-04-07T05:48:42.202Z,100356.22
2023-04-07T05:51:15.793Z,100363.64
2023-04-07T05:53:50.022Z,100366.64
2023-04-07T05:56:24.111Z,100369.50
2023-04-07T05:58:59.350Z,100365.42
2023-04-07T06:01:33.182Z,100369.27
2023-04-07T06:04:06.759Z,100373.74
2023-04-07T06:06:40.355Z,100369.52
2023-04-07T06:09:13.755Z,100366.14
2023-04-07T06:11:47.348Z,100380.33
2023-04-07T06:14:22.159Z,100379.40
2023-04-07T06:16:56.829Z,100384.71
2023-04-07T06:19:32.446Z,100377.67
2023-04-07T06:22:07.067Z,100385.48
2023-04-07T06:24:40.294Z,100386.19
2023-04-07T06:27:14.372Z,100386.72
2023-04-07T06:29:48.073Z,100391.56
2023-04-07T06:32:22.290Z,100392.75
2023-04-07T06:34:56.740Z,100396.91
2023-04-07T06:37:30.715Z,100390.51
2023-04-07T06:40:04.585Z,100399.94
2023-04-07T06:42:37.922Z,100404.09
2023-04-07T06:45:17.265Z,100404.59
2023-04-07T06:47:51.096Z,100408.08
2023-04-07T06:50:24.488Z,100415.81
2023-04-07T06:52:58.039Z,100415.67
2023-04-07T06:55:31.491Z,100413.84
2023-04-07T06:58:04.669Z,100414.68
2023-04-07T07:00:38.740Z,100418.01
2023-04-07T07:03:12.577Z,100424.92
2023-04-07T07:05:46.146Z,100419.79
2023-04-07T07:08:19.409Z,100417.98
2023-04-07T07:10:53.029Z,100421.41
2023-04-07T07:13:28.267Z,100425.19
2023-04-07T07:16:01.939Z,100431.26
2023-04-07T07:18:34.948Z,100437.69
2023-04-07T07:21:08.721Z,100436.83
2023-04-07T07:23:42.123Z,100437.80
2023-04-07T07:26:15.869Z,100441.90
2023-04-07T07:28:49.867Z,100443.86
2023-04-07T07:31:23.510Z,100447.92
2023-04-07T07:33:57.069Z,100455.47
2023-04-07T07:36:30.466Z,100451.63
2023-04-07T07:39:03.960Z,100457.52
2023-04-07T07:41:37.515Z,100447.05
2023-04-07T07:44:11.263Z,100460.72
2023-04-07T07:46:44.902Z,100461.31
2023-04-07T07:49:18.511Z,100459.90
2023-04-07T07:51:52.261Z,100464.65
2023-04-07T07:54:25.745Z,100467.42
2023-04-07T07:56:59.126Z,100466.55
2023-04-07T07:59:32.339Z,100474.23
2023-04-07T08:02:05.715Z,100481.11
2023-04-07T08:04:39.664Z,100484.23
2023-04-07T08:07:12.830Z,100479.03
2023-04-07T08:09:46.432Z,100484.45
2023-04-07T08:12:19.838Z,100480.07
2023-04-07T08:14:53.633Z,100483.53
2023-04-07T08:17:26.755Z,100483.00
2023-04-07T08:20:00.183Z,100486.61
2023-04-07T08:22:33.389Z,100486.69
2023-04-07T08:25:07.085Z,100479.86
2023-04-07T08:27:41.289Z,100490.37
2023-04-07T08:30:17.028Z,100488.80
2023-04-07T08:32:51.103Z,100486.25
2023-04-07T08:35:24.726Z,100481.66
2023-04-07T08:37:58.275Z,100485.05
2023-04-07T08:40:32.019Z,100488.41
2023-04-07T08:43:09.847Z,100483.84
2023-04-07T08:45:44.274Z,100480.45
2023-04-07T08:48:20.191Z,100492.50
2023-04-07T08:50:55.373Z,100480.34
2023-04-07T08:53:37.487Z,100485.53
2023-04-07T08:56:12.954Z,100480.28
2023-04-07T08:58:50.241Z,100484.09
2023-04-07T09:01:24.329Z,100482.58
2023-04-07T09:03:58.395Z,100488.47
2023-04-07T09:06:34.174Z,100495.55
2023-04-07T09:09:08.089Z,100494.19
2023-04-07T09:11:42.991Z,100492.66
2023-04-07T09:14:16.723Z,100502.22
2023-04-07T09:16:50.826Z,100506.38
2023-04-07T09:19:26.360Z,100514.34
2023-04-07T09:21:59.701Z,100505.30
2023-04-07T09:24:33.790Z,100513.09
2023-04-07T09:27:19.416Z,100516.16
2023-04-07T09:29:52.582Z,100512.25
2023-04-07T09:32:41.619Z,100518.59
2023-04-07T09:35:14.897Z,100517.33
2023-04-07T09:38:02.284Z,100516.70
2023-04-07T09:40:36.710Z,100512.61
2023-04-07T09:43:16.724Z,100524.49
2023-04-07T09:45:50.510Z,100507.33
2023-04-07T09:48:24.918Z,100515.50
2023-04-07T09:51:09.698Z,100513.27
2023-04-07T09:53:49.040Z,100512.70
2023-04-07T09:56:24.143Z,100518.64
2023-04-07T09:58:58.368Z,100515.60
2023-04-07T10:01:31.894Z,100527.09
2023-04-07T10:04:07.020Z,100529.81
2023-04-07T10:06:40.813Z,100527.81
2023-04-07T10:09:15.112Z,100535.45
2023-04-07T10:11:49.029Z,100529.35
2023-04-07T10:14:27.701Z,100529.14
2023-04-07T10:17:01.506Z,100540.22
2023-04-07T10:19:36.234Z,100543.30
2023-04-07T10:22:10.595Z,100542.28
2023-04-07T10:24:54.436Z,100537.98
2023-04-07T10:27:32.850Z,100539.20
2023-04-07T10:30:13.718Z,100536.31
2023-04-07T10:32:52.785Z,100537.91
2023-04-07T10:35:26.978Z,100542.80
2023-04-07T10:38:17.353Z,100540.95
2023-04-07T10:40:50.918Z,100543.84
2023-04-07T10:43:42.186Z,100547.13
2023-04-07T10:46:15.890Z,100543.61
2023-04-07T10:49:12.141Z,100545.23
2023-04-07T10:51:45.907Z,100541.11
2023-04-07T10:54:24.133Z,100550.31
2023-04-07T10:57:24.521Z,100555.63
2023-04-07T11:00:19.886Z,100557.45
2023-04-07T11:02:53.611Z,100556.64
2023-04-07T11:05:27.523Z,100555.63
2023-04-07T11:08:05.804Z,100554.41
2023-04-07T11:10:40.127Z,100559.33
2023-04-07T11:13:13.626Z,100557.45
2023-04-07T11:15:51.442Z,100561.96
2023-04-07T11:18:25.654Z,100558.67
2023-04-07T11:20:59.910Z,100559.30
2023-04-07T11:23:39.651Z,100558.47
2023-04-07T11:26:14.617Z,100554.16
2023-04-07T11:28:50.323Z,100562.11
2023-04-07T11:31:27.715Z,100557.18
2023-04-07T11:34:03.405Z,100556.94
2023-04-07T11:36:39.737Z,100556.48
2023-04-07T11:39:23.570Z,100558.06
2023-04-07T11:41:56.966Z,100554.22
2023-04-07T11:44:30.575Z,100552.48
2023-04-07T11:47:05.392Z,100558.67
2023-04-07T11:49:45.955Z,100549.69
2023-04-07T11:52:19.631Z,100539.91
2023-04-07T11:54:53.372Z,100556.73
2023-04-07T11:57:30.089Z,100552.66
2023-04-07T12:00:12.902Z,100551.44
2023-04-07T12:02:46.870Z,100568.64
2023-04-07T12:05:21.185Z,100563.09
2023-04-07T12:07:58.137Z,100561.66
2023-04-07T12:10:33.578Z,100557.36
2023-04-07T12:13:07.924Z,100565.34
2023-04-07T12:15:41.636Z,100568.80
2023-04-07T12:18:19.391Z,100570.66
2023-04-07T12:20:52.573Z,100569.19
2023-04-07T12:23:26.505Z,100569.02
2023-04-07T12:25:59.900Z,100575.14
2023-04-07T12:28:33.505Z,100582.09
2023-04-07T12:31:07.510Z,100574.12
2023-04-07T12:33:40.623Z,100576.55
2023-04-07T12:36:14.112Z,100573.08
2023-04-07T12:38:47.414Z,100576.75
2023-04-07T12:41:20.740Z,100578.58
2023-04-07T12:43:54.294Z,100580.66
2023-04-07T12:46:27.715Z,100574.36
2023-04-07T12:49:01.306Z,100573.78
2023-04-07T12:51:35.074Z,100583.41
2023-04-07T12:54:08.890Z,100590.94
2023-04-07T12:56:42.548Z,100588.67
2023-04-07T12:59:16.491Z,100587.41
2023-04-07T13:01:50.975Z,100588.02
2023-04-07T13:04:24.673Z,100595.16
2023-04-07T13:06:59.723Z,100591.88
2023-04-07T13:09:33.439Z,100594.11
2023-04-07T13:12:06.837Z,100595.52
2023-04-07T13:14:52.757Z,100597.09
2023-04-07T13:17:30.951Z,100601.16
2023-04-07T13:20:05.684Z,100598.45
2023-04-07T13:22:48.810Z,100606.98
2023-04-07T13:25:25.868Z,100610.20
2023-04-07T13:28:00.083Z,100617.30
2023-04-07T13:30:33.964Z,100613.37
2023-04-07T13:33:07.584Z,100615.41
2023-04-07T13:35:41.101Z,100620.26
2023-04-07T13:38:14.556Z,100614.69
2023-04-07T13:40:49.798Z,100615.25
2023-04-07T13:43:23.349Z,100619.38
2023-04-07T13:45:56.952Z,100618.73
2023-04-07T13:48:30.524Z,100615.70
2023-04-07T13:51:03.667Z,100627.14
2023-04-07T13:53:37.318Z,100629.36
2023-04-07T13:56:12.228Z,100640.37
2023-04-07T13:58:46.347Z,100647.07
2023-04-07T14:01:19.814Z,100643.52
2023-04-07T14:03:53.104Z,100651.40
2023-04-07T14:06:27.282Z,100654.63
2023-04-07T14:09:01.564Z,100656.76
2023-04-07T14:11:35.367Z,100656.49
2023-04-07T14:14:08.993Z,100668.30
2023-04-07T14:16:42.583Z,100663.98
2023-04-07T14:19:15.672Z,100662.71
2023-04-07T14:21:48.946Z,100673.70
2023-04-07T14:24:22.551Z,100671.98
2023-04-07T14:26:56.157Z,100670.50
2023-04-07T14:29:29.387Z,100670.87
2023-04-07T14:32:02.866Z,100673.89
2023-04-07T14:34:36.354Z,100682.59
2023-04-07T14:37:10.148Z,100684.97
2023-04-07T14:39:55.322Z,100688.71
2023-04-07T14:42:37.091Z,100680.83
2023-04-07T14:45:13.082Z,100692.17
2023-04-07T14:47:46.894Z,100691.53
2023-04-07T14:50:20.731Z,100696.02
2023-04-07T14:52:54.870Z,100697.19
2023-04-07T14:55:29.395Z,100694.73
2023-04-07T14:58:03.018Z,100699.39
2023-04-07T15:00:36.395Z,100699.75
2023-04-07T15:03:10.257Z,100699.92
2023-04-07T15:05:44.519Z,100694.17
2023-04-07T15:08:18.141Z,100693.52
2023-04-07T15:10:51.441Z,100701.84
2023-04-07T15:13:24.904Z,100709.30
2023-04-07T15:15:58.741Z,100703.91
2023-04-07T15:18:32.330Z,100706.91
2023-04-07T15:21:06.234Z,100715.03
2023-04-07T15:23:40.679Z,100714.58
2023-04-07T15:26:14.383Z,100714.09
2023-04-07T15:28:48.135Z,100717.64
2023-04-07T15:31:23.637Z,100720.34
2023-04-07T15:33:56.760Z,100721.86
2023-04-07T15:36:31.542Z,100732.81
2023-04-07T15:39:07.282Z,100735.00
2023-04-07T15:41:41.864Z,100729.05
2023-04-07T15:44:20.274Z,100733.50
2023-04-07T15:46:54.357Z,100735.47
2023-04-07T15:49:27.708Z,100741.77
2023-04-07T15:52:01.410Z,100738.66
2023-04-07T15:54:35.051Z,100739.82
2023-04-07T15:57:08.588Z,100739.17
2023-04-07T15:59:42.385Z,100742.66
2023-04-07T16:02:16.182Z,100741.81
2023-04-07T16:04:49.449Z,100738.52
2023-04-07T16:07:22.878Z,100744.81
2023-04-07T16:09:56.377Z,100741.52
2023-04-07T16:12:29.862Z,100752.45
2023-04-07T16:15:03.835Z,100753.64
2023-04-07T16:17:37.930Z,100755.14
2023-04-07T16:20:16.096Z,100758.32
2023-04-07T16:22:50.660Z,100756.67
2023-04-07T16:25:23.915Z,100769.25
2023-04-07T16:27:57.282Z,100766.95
2023-04-07T16:30:30.897Z,100775.23
2023-04-07T16:33:04.953Z,100773.73
2023-04-07T16:35:38.533Z,100774.27
2023-04-07T16:38:11.925Z,100778.06
2023-04-07T16:41:02.826Z,100783.20
2023-04-07T16:43:36.709Z,100782.22
2023-04-07T16:46:10.475Z,100783.55
2023-04-07T16:48:44.028Z,100792.82
2023-04-07T16:51:21.463Z,100791.51
2023-04-07T16:53:55.138Z,100796.33
2023-04-07T16:56:28.917Z,100797.47
2023-04-07T16:59:03.880Z,100794.34
2023-04-07T17:01:41.496Z,100798.98
2023-04-07T17:04:15.527Z,100802.62
2023-04-07T17:06:49.157Z,100805.59
2023-04-07T17:09:23.124Z,100807.59
2023-04-07T17:11:57.172Z,100812.22
2023-04-07T17:14:30.972Z,100817.50
2023-04-07T17:17:05.260Z,100822.14
2023-04-07T17:19:38.662Z,100822.28
2023-04-07T17:22:12.176Z,100833.86
2023-04-07T17:24:47.416Z,100829.73
2023-04-07T17:27:21.514Z,100832.72
2023-04-07T17:29:55.030Z,100840.80
2023-04-07T17:32:28.153Z,100837.67
2023-04-07T17:35:01.401Z,100843.62
2023-04-07T17:37:35.001Z,100849.23
2023-04-07T17:40:10.677Z,100851.36
2023-04-07T17:42:44.856Z,100855.00
2023-04-07T17:45:18.463Z,100851.87
2023-04-07T17:47:52.919Z,100855.50
2023-04-07T17:50:26.118Z,100860.94
2023-04-07T17:53:00.902Z,100863.76
2023-04-07T17:55:34.373Z,100854.98
2023-04-07T17:58:07.678Z,100865.73
2023-04-07T18:00:41.084Z,100864.23
2023-04-07T18:03:14.967Z,100868.05
2023-04-07T18:05:49.512Z,100866.20
2023-04-07T18:08:22.904Z,100865.40
2023-04-07T18:10:56.503Z,100867.37
2023-04-07T18:13:30.161Z,100873.47
2023-04-07T18:16:03.425Z,100875.13
2023-04-07T18:18:36.689Z,100869.17
2023-04-07T18:21:14.465Z,100878.94
2023-04-07T18:23:49.559Z,100876.44
2023-04-07T18:26:23.821Z,100886.34
2023-04-07T18:28:57.852Z,100889.17
2023-04-07T18:31:31.868Z,100899.88
2023-04-07T18:34:05.031Z,100899.07
2023-04-07T18:36:38.498Z,100896.58
2023-04-07T18:39:12.059Z,100899.22
2023-04-07T18:41:47.672Z,100902.84
2023-04-07T18:44:20.885Z,100901.37
2023-04-07T18:46:54.774Z,100912.75
2023-04-07T18:49:29.030Z,100909.44
2023-04-07T18:52:02.450Z,100911.27
2023-04-07T18:54:35.884Z,100912.25
2023-04-07T18:57:09.280Z,100916.55
2023-04-07T18:59:42.129Z,100913.24
2023-04-07T19:02:15.935Z,100913.24
2023-04-07T19:04:51.558Z,100923.81
2023-04-07T19:07:25.323Z,100913.39
2023-04-07T19:09:58.917Z,100916.03
2023-04-07T19:12:32.529Z,100921.49
2023-04-07T19:15:06.761Z,100925.13
2023-04-07T19:17:40.641Z,100924.45
2023-04-07T19:20:15.250Z,100922.80
2023-04-07T19:22:48.799Z,100928.22
2023-04-07T19:25:22.714Z,100934.49
2023-04-07T19:27:56.354Z,100926.88
2023-04-07T19:30:29.813Z,100934.00
2023-04-07T19:33:03.169Z,100933.47
2023-04-07T19:35:39.208Z,100939.42
2023-04-07T19:38:12.735Z,100947.52
2023-04-07T19:40:46.148Z,100941.57
2023-04-07T19:43:21.208Z,100941.57
2023-04-07T19:45:54.554Z,100940.59
2023-04-07T19:48:28.703Z,100943.23
2023-04-07T19:51:02.663Z,100938.93
2023-04-07T19:53:36.719Z,100937.27
2023-04-07T19:56:11.245Z,100940.59
2023-04-07T19:58:44.883Z,100952.28
2023-04-07T20:01:20.895Z,100943.54
2023-04-07T20:03:54.600Z,100949.95
2023-04-07T20:06:28.190Z,100943.02
2023-04-07T20:09:03.243Z,100943.19
2023-04-07T20:11:36.810Z,100950.44
2023-04-07T20:14:10.372Z,100953.89
2023-04-07T20:16:43.201Z,100953.22
2023-04-07T20:19:16.962Z,100953.39
2023-04-07T20:21:51.069Z,100949.91
2023-04-07T20:24:24.511Z,100947.27
2023-04-07T20:26:58.366Z,100951.73
2023-04-07T20:29:31.971Z,100954.38
2023-04-07T20:32:05.774Z,100956.17
2023-04-07T20:34:38.622Z,100947.44
2023-04-07T20:37:12.359Z,100956.17
2023-04-07T20:39:45.511Z,100954.69
2023-04-07T20:42:19.298Z,100955.50
2023-04-07T20:44:54.907Z,100958.14
2023-04-07T20:47:29.036Z,100955.50
2023-04-07T20:50:02.416Z,100957.33
2023-04-07T20:52:39.733Z,100958.31
2023-04-07T20:55:15.404Z,100960.11
2023-04-07T20:57:49.298Z,100957.47
2023-04-07T21:00:23.372Z,100956.80
2023-04-07T21:02:57.296Z,100958.63
2023-04-07T21:05:31.033Z,100956.97
2023-04-07T21:08:04.233Z,100955.45
2023-04-07T21:10:37.600Z,100950.17
2023-04-07T21:13:11.167Z,100953.66
2023-04-07T21:15:44.568Z,100956.30
2023-04-07T21:18:19.440Z,100964.22
2023-04-07T21:20:52.983Z,100954.64
2023-04-07T21:23:26.590Z,100952.00
2023-04-07T21:26:03.424Z,100965.34
2023-04-07T21:28:37.256Z,100957.59
2023-04-07T21:31:11.059Z,100955.27
2023-04-07T21:33:44.322Z,100958.05
2023-04-07T21:36:17.624Z,100951.28
2023-04-07T21:38:52.281Z,100956.55
2023-04-07T21:41:25.448Z,100954.05
2023-04-07T21:43:59.051Z,100949.92
2023-04-07T21:46:33.495Z,100955.20
2023-04-07T21:49:07.724Z,100954.53
2023-04-07T21:51:41.100Z,100951.89
2023-04-07T21:54:15.318Z,100965.09
2023-04-07T21:56:49.584Z,100960.62
2023-04-07T21:59:22.978Z,100953.86
2023-04-07T22:01:57.665Z,100961.11
2023-04-07T22:04:30.969Z,100967.20
2023-04-07T22:07:05.341Z,100968.35
2023-04-07T22:09:39.150Z,100965.85
2023-04-07T22:12:12.652Z,100968.66
2023-04-07T22:14:46.202Z,100960.06
2023-04-07T22:17:19.536Z,100968.13
2023-04-07T22:19:53.128Z,100973.41
2023-04-07T22:22:26.730Z,100966.47
2023-04-07T22:25:00.328Z,100972.72
2023-04-07T22:27:34.131Z,100973.70
2023-04-07T22:30:11.035Z,100969.27
2023-04-07T22:32:44.270Z,100973.70
2023-04-07T22:35:17.793Z,100972.05
2023-04-07T22:37:51.410Z,100979.97
2023-04-07T22:40:25.198Z,100981.80
2023-04-07T22:42:58.599Z,100977.50
2023-04-07T22:45:32.460Z,100979.30
2023-04-07T22:48:06.613Z,100981.25
2023-04-07T22:50:40.576Z,100982.91
2023-04-07T22:53:14.041Z,100982.91
2023-04-07T22:55:47.612Z,100983.75
2023-04-07T22:58:21.416Z,100988.19
2023-04-07T23:00:54.515Z,100991.00
2023-04-07T23:03:28.063Z,100992.80
2023-04-07T23:06:02.680Z,100994.62
2023-04-07T23:08:36.016Z,100996.41
2023-04-07T23:11:11.915Z,101003.52
2023-04-07T23:13:45.267Z,100996.58
2023-04-07T23:16:19.133Z,100992.28
2023-04-07T23:18:52.524Z,100983.66
2023-04-07T23:21:26.674Z,100996.98
2023-04-07T23:24:00.714Z,100990.73
2023-04-07T23:26:34.081Z,100987.28
2023-04-07T23:29:07.592Z,100984.64
2023-04-07T23:31:40.975Z,100989.91
2023-04-07T23:34:14.178Z,100983.80
2023-04-07T23:36:47.861Z,100978.52
2023-04-07T23:39:21.675Z,100982.98
2023-04-07T23:41:56.094Z,100981.33
2023-04-07T23:44:29.596Z,100990.22
2023-04-07T23:47:02.889Z,100992.02
2023-04-07T23:49:35.865Z,100983.59
2023-04-07T23:52:09.889Z,100987.04
2023-04-07T23:54:43.123Z,100989.67
2023-04-07T23:57:16.743Z,100996.92
2023-04-07T23:59:50.082Z,100997.08
